createdAt,value
2022-11-17T00:01:47.177Z,76.17
2022-11-17T00:04:19.453Z,76.02
2022-11-17T00:06:54.200Z,75.95
2022-11-17T00:09:27.040Z,75.88
2022-11-17T00:12:22.092Z,75.75
2022-11-17T00:14:54.736Z,75.82
2022-11-17T00:17:27.004Z,75.90
2022-11-17T00:20:30.947Z,75.68
2022-11-17T00:23:07.339Z,75.61
2022-11-17T00:25:42.055Z,75.20
2022-11-17T00:28:14.301Z,75.23
2022-11-17T00:31:04.240Z,75.14
2022-11-17T00:36:59.309Z,75.06
2022-11-17T00:39:34.957Z,74.89
2022-11-17T00:42:07.942Z,74.91
2022-11-17T00:44:40.090Z,75.29
2022-11-17T00:47:12.168Z,75.28
2022-11-17T00:49:46.027Z,74.93
2022-11-17T00:52:30.300Z,74.77
2022-11-17T00:55:02.623Z,74.67
2022-11-17T00:57:35.653Z,74.79
2022-11-17T01:00:12.316Z,74.43
2022-11-17T01:05:38.426Z,74.82
2022-11-17T01:08:10.852Z,74.82
2022-11-17T01:10:47.141Z,74.59
2022-11-17T01:13:22.318Z,74.62
2022-11-17T01:15:54.426Z,74.51
2022-11-17T01:18:29.705Z,74.62
2022-11-17T01:21:10.148Z,74.65
2022-11-17T01:23:47.363Z,75.14
2022-11-17T01:26:22.049Z,75.24
2022-11-17T01:28:58.606Z,74.77
2022-11-17T01:31:54.568Z,74.57
2022-11-17T01:34:55.966Z,74.92
2022-11-17T01:37:29.461Z,74.69
2022-11-17T01:40:01.620Z,74.78
2022-11-17T01:42:33.709Z,74.44
2022-11-17T01:45:17.966Z,74.45
2022-11-17T01:47:53.742Z,74.48
2022-11-17T01:50:33.016Z,74.48
2022-11-17T01:53:10.213Z,74.54
2022-11-17T01:55:52.257Z,74.53
2022-11-17T01:58:31.965Z,74.44
2022-11-17T02:01:05.080Z,74.21
2022-11-17T02:03:39.951Z,74.30
2022-11-17T02:06:20.855Z,74.05
2022-11-17T02:08:55.011Z,74.44
2022-11-17T02:11:28.944Z,74.34
2022-11-17T02:14:01.336Z,74.51
2022-11-17T02:16:33.682Z,74.51
2022-11-17T02:19:05.877Z,74.47
2022-11-17T02:22:24.082Z,74.27
2022-11-17T02:25:05.842Z,74.58
2022-11-17T02:27:58.114Z,74.34
2022-11-17T02:30:37.005Z,74.29
2022-11-17T02:33:18.505Z,74.36
2022-11-17T02:35:58.236Z,74.85
2022-11-17T02:38:34.175Z,74.68
2022-11-17T02:41:13.813Z,74.61
2022-11-17T02:44:07.860Z,74.60
2022-11-17T02:46:48.640Z,74.43
2022-11-17T02:49:25.173Z,74.64
2022-11-17T02:52:00.616Z,74.69
2022-11-17T02:54:34.448Z,74.46
2022-11-17T02:57:06.913Z,74.80
2022-11-17T02:59:44.199Z,74.66
2022-11-17T03:02:26.147Z,74.68
2022-11-17T03:05:11.106Z,74.94
2022-11-17T03:08:11.206Z,74.76
2022-11-17T03:11:07.093Z,74.78
2022-11-17T03:13:56.098Z,75.07
2022-11-17T03:16:37.442Z,75.19
2022-11-17T03:19:16.006Z,74.75
2022-11-17T03:21:58.201Z,74.81
2022-11-17T03:24:34.973Z,75.37
2022-11-17T03:27:15.497Z,75.35
2022-11-17T03:29:51.722Z,75.37
2022-11-17T03:32:26.036Z,75.40
2022-11-17T03:35:05.379Z,75.68
2022-11-17T03:37:45.245Z,75.23
2022-11-17T03:40:23.775Z,75.67
2022-11-17T03:43:00.166Z,75.46
2022-11-17T03:45:38.556Z,76.01
2022-11-17T03:48:18.823Z,75.94
2022-11-17T03:50:58.836Z,76.31
2022-11-17T03:53:32.100Z,76.15
2022-11-17T03:56:10.366Z,76.57
2022-11-17T03:58:51.035Z,76.25
2022-11-17T04:01:23.930Z,76.59
2022-11-17T04:03:56.137Z,76.78
2022-11-17T04:06:28.428Z,76.24
2022-11-17T04:09:00.562Z,76.42
2022-11-17T04:11:51.159Z,76.78
2022-11-17T04:14:55.535Z,76.53
2022-11-17T04:17:29.831Z,76.76
2022-11-17T04:20:37.096Z,77.06
2022-11-17T04:23:12.689Z,77.09
2022-11-17T04:26:25.977Z,76.97
2022-11-17T04:28:58.689Z,76.76
2022-11-17T04:31:52.209Z,76.62
2022-11-17T04:34:29.822Z,76.73
2022-11-17T04:37:18.537Z,77.14
2022-11-17T04:40:02.325Z,77.05
2022-11-17T04:42:48.432Z,76.94
2022-11-17T04:45:23.400Z,76.97
2022-11-17T04:47:55.550Z,76.80
2022-11-17T04:50:27.701Z,77.25
2022-11-17T04:55:49.963Z,76.92
2022-11-17T04:58:23.017Z,77.19
2022-11-17T05:00:55.599Z,77.11
2022-11-17T05:03:27.813Z,77.40
2022-11-17T05:05:59.992Z,77.53
2022-11-17T05:08:37.448Z,77.21
2022-11-17T05:11:28.565Z,77.15
2022-11-17T05:14:08.965Z,77.30
2022-11-17T05:17:08.410Z,77.27
2022-11-17T05:19:44.375Z,77.47
2022-11-17T05:25:44.833Z,77.76
2022-11-17T05:28:17.071Z,78.02
2022-11-17T05:30:49.856Z,77.78
2022-11-17T05:33:21.970Z,77.57
2022-11-17T05:35:54.096Z,77.59
2022-11-17T05:38:26.220Z,77.96
2022-11-17T05:40:58.324Z,77.62
2022-11-17T05:43:30.699Z,77.64
2022-11-17T05:46:02.791Z,77.69
2022-11-17T05:48:35.220Z,78.04
2022-11-17T05:51:10.473Z,77.97
2022-11-17T05:53:45.611Z,77.65
2022-11-17T05:56:36.948Z,77.95
2022-11-17T05:59:33.610Z,77.88
2022-11-17T06:02:09.953Z,78.13
2022-11-17T06:04:42.296Z,78.03
2022-11-17T06:07:14.577Z,78.17
2022-11-17T06:09:47.023Z,78.22
2022-11-17T06:12:19.821Z,78.08
2022-11-17T06:14:52.182Z,78.16
2022-11-17T06:17:28.116Z,78.44
2022-11-17T06:20:07.415Z,78.51
2022-11-17T06:22:42.846Z,78.54
2022-11-17T06:25:19.682Z,78.54
2022-11-17T06:27:54.211Z,78.84
2022-11-17T06:30:27.364Z,79.10
2022-11-17T06:33:01.152Z,78.89
2022-11-17T06:35:35.299Z,78.89
2022-11-17T06:38:07.381Z,79.29
2022-11-17T06:40:39.530Z,79.16
2022-11-17T06:43:11.713Z,79.18
2022-11-17T06:45:46.035Z,79.44
2022-11-17T06:48:25.328Z,79.47
2022-11-17T06:50:57.844Z,79.58
2022-11-17T06:53:30.215Z,79.38
2022-11-17T06:56:07.625Z,79.79
2022-11-17T06:58:41.448Z,79.78
2022-11-17T07:04:03.952Z,79.92
2022-11-17T07:06:40.402Z,79.79
2022-11-17T07:09:16.408Z,79.77
2022-11-17T07:11:51.600Z,79.89
2022-11-17T07:14:23.942Z,79.50
2022-11-17T07:16:56.002Z,79.89
2022-11-17T07:19:28.096Z,79.68
2022-11-17T07:22:00.237Z,79.95
2022-11-17T07:24:32.372Z,79.74
2022-11-17T07:27:06.608Z,79.76
2022-11-17T07:29:38.677Z,79.85
2022-11-17T07:32:14.920Z,80.13
2022-11-17T07:34:47.128Z,79.94
2022-11-17T07:37:19.887Z,80.21
2022-11-17T07:39:52.035Z,80.31
2022-11-17T07:42:24.384Z,80.08
2022-11-17T07:47:46.871Z,80.00
2022-11-17T07:50:20.025Z,80.12
2022-11-17T07:52:52.653Z,80.09
2022-11-17T07:55:28.656Z,79.61
2022-11-17T07:58:03.099Z,79.89
2022-11-17T08:00:35.737Z,79.86
2022-11-17T08:03:07.995Z,79.85
2022-11-17T08:05:43.714Z,79.83
2022-11-17T08:08:16.332Z,79.98
2022-11-17T08:10:50.694Z,79.78
2022-11-17T08:13:24.240Z,79.64
2022-11-17T08:16:00.190Z,79.63
2022-11-17T08:18:32.838Z,79.73
2022-11-17T08:21:07.653Z,79.96
2022-11-17T08:23:40.515Z,79.62
2022-11-17T08:26:13.950Z,79.61
2022-11-17T08:28:50.172Z,79.37
2022-11-17T08:31:26.040Z,79.25
2022-11-17T08:33:58.349Z,79.35
2022-11-17T08:36:30.507Z,79.30
2022-11-17T08:39:05.245Z,79.37
2022-11-17T08:41:37.699Z,78.97
2022-11-17T08:44:10.045Z,79.15
2022-11-17T08:46:42.403Z,79.22
2022-11-17T08:49:14.894Z,78.99
2022-11-17T08:51:47.081Z,79.38
2022-11-17T08:54:21.418Z,79.13
2022-11-17T08:57:01.033Z,78.97
2022-11-17T08:59:33.594Z,78.68
2022-11-17T09:02:06.240Z,78.79
2022-11-17T09:04:38.530Z,78.64
2022-11-17T09:07:10.762Z,78.39
2022-11-17T09:09:43.003Z,78.10
2022-11-17T09:12:16.079Z,77.96
2022-11-17T09:14:48.368Z,77.53
2022-11-17T09:17:22.432Z,77.46
2022-11-17T09:19:54.575Z,77.32
2022-11-17T09:22:26.766Z,77.01
2022-11-17T09:25:01.451Z,76.58
2022-11-17T09:27:33.648Z,76.60
2022-11-17T09:30:07.882Z,76.84
2022-11-17T09:32:40.297Z,76.52
2022-11-17T09:35:13.002Z,76.49
2022-11-17T09:37:45.288Z,75.96
2022-11-17T09:40:19.760Z,76.05
2022-11-17T09:42:52.310Z,75.43
2022-11-17T09:45:29.289Z,75.17
2022-11-17T09:48:39.077Z,75.49
2022-11-17T09:51:10.121Z,74.59
2022-11-17T09:53:50.057Z,74.43
2022-11-17T09:56:25.003Z,74.26
2022-11-17T09:59:02.061Z,73.71
2022-11-17T10:01:34.737Z,73.37
2022-11-17T10:04:17.050Z,73.56
2022-11-17T10:06:54.666Z,73.02
2022-11-17T10:09:42.622Z,73.11
2022-11-17T10:12:20.468Z,72.92
2022-11-17T10:14:57.853Z,72.49
2022-11-17T10:17:30.801Z,72.28
2022-11-17T10:20:14.560Z,72.28
2022-11-17T10:22:48.794Z,72.71
2022-11-17T10:25:37.543Z,72.19
2022-11-17T10:28:29.012Z,72.45
2022-11-17T10:31:03.605Z,71.96
2022-11-17T10:33:42.071Z,72.41
2022-11-17T10:36:22.171Z,71.91
2022-11-17T10:38:57.095Z,71.90
2022-11-17T10:41:34.585Z,71.65
2022-11-17T10:44:16.925Z,72.15
2022-11-17T10:47:02.338Z,72.11
2022-11-17T10:49:38.005Z,72.11
2022-11-17T10:52:19.855Z,72.04
2022-11-17T10:54:52.135Z,71.52
2022-11-17T10:57:27.676Z,71.34
2022-11-17T11:00:00.016Z,71.64
2022-11-17T11:02:35.184Z,71.44
2022-11-17T11:05:14.317Z,71.76
2022-11-17T11:08:22.908Z,71.75
2022-11-17T11:11:35.884Z,71.43
2022-11-17T11:14:16.922Z,71.87
2022-11-17T11:16:51.576Z,71.75
2022-11-17T11:19:26.207Z,71.00
2022-11-17T11:22:23.328Z,71.29
2022-11-17T11:25:04.459Z,71.24
2022-11-17T11:27:56.611Z,71.42
2022-11-17T11:30:32.672Z,71.09
2022-11-17T11:33:22.235Z,71.23
2022-11-17T11:36:15.314Z,71.01
2022-11-17T11:39:05.215Z,71.16
2022-11-17T11:42:07.497Z,70.93
2022-11-17T11:44:53.716Z,70.74
2022-11-17T11:47:44.167Z,70.95
2022-11-17T11:50:21.907Z,71.25
2022-11-17T11:53:00.633Z,70.93
2022-11-17T11:55:38.810Z,71.11
2022-11-17T11:58:18.731Z,71.69
2022-11-17T12:00:54.933Z,71.70
2022-11-17T12:03:34.956Z,71.51
2022-11-17T12:06:34.271Z,71.44
2022-11-17T12:09:25.979Z,70.76
2022-11-17T12:12:02.292Z,71.39
2022-11-17T12:14:37.576Z,71.23
2022-11-17T12:17:23.588Z,71.18
2022-11-17T12:20:04.625Z,71.28
2022-11-17T12:23:10.958Z,70.96
2022-11-17T12:25:54.112Z,71.46
2022-11-17T12:28:36.742Z,71.50
2022-11-17T12:31:10.938Z,71.31
2022-11-17T12:34:18.282Z,71.79
2022-11-17T12:37:17.030Z,72.16
2022-11-17T12:40:07.940Z,71.79
2022-11-17T12:43:22.453Z,71.99
2022-11-17T12:46:14.467Z,71.57
2022-11-17T12:48:57.654Z,71.95
2022-11-17T12:51:40.436Z,71.81
2022-11-17T12:54:23.426Z,71.65
2022-11-17T12:57:06.803Z,71.91
2022-11-17T13:00:05.490Z,72.13
2022-11-17T13:02:59.261Z,72.41
2022-11-17T13:05:33.886Z,72.30
2022-11-17T13:08:21.149Z,72.10
2022-11-17T13:11:03.716Z,72.12
2022-11-17T13:13:37.189Z,72.20
2022-11-17T13:16:19.933Z,72.37
2022-11-17T13:18:52.148Z,72.48
2022-11-17T13:21:33.164Z,72.04
2022-11-17T13:24:05.878Z,72.21
2022-11-17T13:26:41.514Z,72.51
2022-11-17T13:29:33.393Z,72.28
2022-11-17T13:32:26.309Z,72.60
2022-11-17T13:35:29.300Z,72.46
2022-11-17T13:38:06.947Z,72.31
2022-11-17T13:40:41.146Z,72.11
2022-11-17T13:43:18.664Z,72.28
2022-11-17T13:45:52.295Z,72.32
2022-11-17T13:48:35.561Z,72.44
2022-11-17T13:51:30.043Z,72.41
2022-11-17T13:54:06.831Z,72.27
2022-11-17T13:56:41.331Z,72.67
2022-11-17T13:59:26.820Z,72.14
2022-11-17T14:02:26.804Z,72.39
2022-11-17T14:05:24.150Z,72.25
2022-11-17T14:08:00.093Z,72.27
2022-11-17T14:10:36.548Z,72.50
2022-11-17T14:13:38.743Z,72.47
2022-11-17T14:16:23.671Z,72.75
2022-11-17T14:19:01.905Z,72.90
2022-11-17T14:21:34.905Z,72.87
2022-11-17T14:24:11.992Z,73.01
2022-11-17T14:26:54.164Z,72.99
2022-11-17T14:29:29.850Z,73.03
2022-11-17T14:32:02.002Z,72.86
2022-11-17T14:34:36.725Z,72.47
2022-11-17T14:37:14.850Z,71.89
2022-11-17T14:39:49.122Z,71.94
2022-11-17T14:42:21.255Z,71.97
2022-11-17T14:44:53.967Z,71.27
2022-11-17T14:47:26.014Z,71.53
2022-11-17T14:50:00.546Z,71.43
2022-11-17T14:52:32.957Z,71.13
2022-11-17T14:55:09.595Z,71.30
2022-11-17T14:57:42.089Z,71.05
2022-11-17T15:00:20.585Z,71.09
2022-11-17T15:02:53.067Z,70.93
2022-11-17T15:05:25.173Z,71.17
2022-11-17T15:07:58.103Z,70.98
2022-11-17T15:10:31.294Z,70.96
2022-11-17T15:13:03.581Z,71.05
2022-11-17T15:15:35.718Z,71.38
2022-11-17T15:18:10.659Z,71.07
2022-11-17T15:20:42.846Z,71.33
2022-11-17T15:23:15.184Z,71.33
2022-11-17T15:25:49.551Z,71.43
2022-11-17T15:28:27.558Z,71.33
2022-11-17T15:31:08.535Z,71.28
2022-11-17T15:33:44.104Z,71.14
2022-11-17T15:36:18.248Z,71.65
2022-11-17T15:38:54.240Z,71.27
2022-11-17T15:41:32.562Z,71.14
2022-11-17T15:44:08.200Z,71.47
2022-11-17T15:46:46.957Z,71.59
2022-11-17T15:49:20.024Z,71.61
2022-11-17T15:51:52.131Z,71.64
2022-11-17T15:54:25.727Z,71.69
2022-11-17T15:56:57.901Z,71.81
2022-11-17T15:59:31.692Z,71.73
2022-11-17T16:02:10.953Z,71.63
2022-11-17T16:04:43.507Z,71.96
2022-11-17T16:07:18.407Z,71.78
2022-11-17T16:09:50.676Z,72.20
2022-11-17T16:12:22.809Z,72.25
2022-11-17T16:14:55.238Z,72.44
2022-11-17T16:17:27.657Z,72.03
2022-11-17T16:20:00.186Z,72.24
2022-11-17T16:22:33.419Z,72.16
2022-11-17T16:25:07.405Z,72.64
2022-11-17T16:27:41.943Z,72.66
2022-11-17T16:30:15.704Z,72.62
2022-11-17T16:32:48.001Z,72.75
2022-11-17T16:35:20.150Z,72.74
2022-11-17T16:37:55.192Z,72.82
2022-11-17T16:40:27.311Z,72.41
2022-11-17T16:43:00.181Z,72.98
2022-11-17T16:45:32.509Z,72.68
2022-11-17T16:48:08.297Z,73.06
2022-11-17T16:50:43.902Z,72.98
2022-11-17T16:53:16.344Z,73.20
2022-11-17T16:55:48.479Z,73.23
2022-11-17T16:58:20.874Z,73.50
2022-11-17T17:00:53.073Z,73.52
2022-11-17T17:03:28.242Z,73.34
2022-11-17T17:06:10.460Z,73.76
2022-11-17T17:08:43.385Z,73.70
2022-11-17T17:11:17.005Z,74.04
2022-11-17T17:13:49.276Z,73.84
2022-11-17T17:16:22.232Z,73.93
2022-11-17T17:18:59.530Z,74.21
2022-11-17T17:21:34.491Z,74.21
2022-11-17T17:24:07.607Z,74.25
2022-11-17T17:26:40.734Z,74.20
2022-11-17T17:29:14.143Z,74.18
2022-11-17T17:31:48.850Z,74.28
2022-11-17T17:34:21.065Z,74.10
2022-11-17T17:36:53.539Z,74.44
2022-11-17T17:39:25.761Z,74.60
2022-11-17T17:41:58.037Z,74.52
2022-11-17T17:44:30.354Z,74.44
2022-11-17T17:47:02.547Z,74.38
2022-11-17T17:49:34.724Z,74.66
2022-11-17T17:52:12.455Z,74.55
2022-11-17T17:54:46.289Z,74.82
2022-11-17T17:57:21.400Z,74.50
2022-11-17T17:59:53.902Z,74.67
2022-11-17T18:02:27.565Z,74.82
2022-11-17T18:05:06.454Z,74.92
2022-11-17T18:07:38.717Z,74.80
2022-11-17T18:10:12.633Z,75.08
2022-11-17T18:12:54.935Z,74.99
2022-11-17T18:15:29.435Z,75.20
2022-11-17T18:18:01.679Z,75.30
2022-11-17T18:20:34.119Z,75.43
2022-11-17T18:23:06.379Z,75.45
2022-11-17T18:25:38.603Z,75.45
2022-11-17T18:28:11.249Z,75.34
2022-11-17T18:30:43.707Z,75.48
2022-11-17T18:33:16.386Z,75.47
2022-11-17T18:35:51.326Z,75.33
2022-11-17T18:38:34.393Z,75.03
2022-11-17T18:41:10.991Z,74.96
2022-11-17T18:43:58.038Z,75.05
2022-11-17T18:46:31.996Z,75.09
2022-11-17T18:49:04.270Z,75.16
2022-11-17T18:55:32.302Z,74.89
2022-11-17T18:58:04.455Z,74.99
2022-11-17T19:00:37.695Z,75.24
2022-11-17T19:03:10.859Z,75.09
2022-11-17T19:05:57.122Z,75.01
2022-11-17T19:08:31.447Z,75.12
2022-11-17T19:11:32.982Z,75.00
2022-11-17T19:14:07.205Z,75.03
2022-11-17T19:16:44.435Z,75.10
2022-11-17T19:19:19.653Z,75.16
2022-11-17T19:21:52.293Z,75.04
2022-11-17T19:24:25.111Z,75.28
2022-11-17T19:26:57.262Z,74.89
2022-11-17T19:29:30.102Z,75.02
2022-11-17T19:32:02.303Z,74.99
2022-11-17T19:34:34.513Z,75.08
2022-11-17T19:37:06.800Z,75.15
2022-11-17T19:39:41.909Z,74.96
2022-11-17T19:42:14.126Z,75.10
2022-11-17T19:44:46.620Z,74.99
2022-11-17T19:47:19.251Z,75.22
2022-11-17T19:49:51.444Z,75.18
2022-11-17T19:52:24.094Z,75.36
2022-11-17T19:54:56.385Z,74.82
2022-11-17T19:57:28.756Z,75.06
2022-11-17T20:00:00.950Z,75.24
2022-11-17T20:02:33.477Z,75.06
2022-11-17T20:05:10.648Z,75.24
2022-11-17T20:07:45.403Z,74.92
2022-11-17T20:10:19.825Z,75.03
2022-11-17T20:12:53.378Z,74.96
2022-11-17T20:15:34.552Z,75.39
2022-11-17T20:18:07.479Z,75.12
2022-11-17T20:20:40.693Z,75.32
2022-11-17T20:23:13.072Z,75.36
2022-11-17T20:25:45.383Z,75.23
2022-11-17T20:28:17.721Z,75.29
2022-11-17T20:30:50.395Z,75.20
2022-11-17T20:33:22.520Z,75.45
2022-11-17T20:35:55.888Z,75.38
2022-11-17T20:38:28.687Z,75.39
2022-11-17T20:41:02.161Z,75.38
2022-11-17T20:43:35.134Z,75.58
2022-11-17T20:46:07.701Z,75.42
2022-11-17T20:48:39.899Z,75.35
2022-11-17T20:51:13.764Z,75.50
2022-11-17T20:53:46.210Z,75.69
2022-11-17T20:56:19.260Z,75.58
2022-11-17T20:58:51.901Z,75.73
2022-11-17T21:01:25.066Z,75.94
2022-11-17T21:03:57.553Z,75.78
2022-11-17T21:06:29.903Z,75.73
2022-11-17T21:09:04.720Z,75.71
2022-11-17T21:11:54.752Z,75.78
2022-11-17T21:14:28.034Z,75.85
2022-11-17T21:17:01.704Z,75.83
2022-11-17T21:19:38.766Z,75.85
2022-11-17T21:22:12.658Z,75.91
2022-11-17T21:24:47.357Z,75.89
2022-11-17T21:27:23.044Z,76.04
2022-11-17T21:29:58.295Z,75.60
2022-11-17T21:32:33.174Z,75.75
2022-11-17T21:35:06.646Z,75.79
2022-11-17T21:37:41.169Z,75.83
2022-11-17T21:40:15.059Z,75.89
2022-11-17T21:42:47.368Z,75.68
2022-11-17T21:45:20.057Z,75.89
2022-11-17T21:47:58.042Z,75.68
2022-11-17T21:50:31.959Z,75.91
2022-11-17T21:53:05.064Z,76.17
2022-11-17T21:55:37.205Z,76.08
2022-11-17T21:58:09.387Z,76.15
2022-11-17T22:00:41.900Z,76.38
2022-11-17T22:03:14.138Z,76.19
2022-11-17T22:05:51.992Z,76.55
2022-11-17T22:08:24.700Z,76.53
2022-11-17T22:10:57.331Z,76.78
2022-11-17T22:13:29.808Z,76.96
2022-11-17T22:16:11.946Z,76.93
2022-11-17T22:18:44.427Z,76.95
2022-11-17T22:21:16.633Z,77.03
2022-11-17T22:23:54.245Z,76.97
2022-11-17T22:26:26.583Z,77.02
2022-11-17T22:28:59.365Z,77.14
2022-11-17T22:31:31.555Z,77.25
2022-11-17T22:34:03.694Z,77.19
2022-11-17T22:36:36.105Z,77.38
2022-11-17T22:39:09.455Z,77.49
2022-11-17T22:41:41.687Z,77.61
2022-11-17T22:44:17.017Z,77.70
2022-11-17T22:46:50.526Z,77.58
2022-11-17T22:49:25.017Z,77.53
2022-11-17T22:52:07.718Z,77.66
2022-11-17T22:54:40.044Z,77.84
2022-11-17T22:57:15.693Z,78.20
2022-11-17T22:59:47.902Z,78.16
2022-11-17T23:02:20.429Z,78.21
2022-11-17T23:04:55.981Z,78.42
2022-11-17T23:07:30.882Z,78.45
2022-11-17T23:10:09.268Z,78.55
2022-11-17T23:12:42.669Z,78.62
2022-11-17T23:15:15.495Z,78.97
2022-11-17T23:17:48.101Z,78.92
2022-11-17T23:20:23.073Z,78.88
2022-11-17T23:22:58.149Z,79.25
2022-11-17T23:25:33.293Z,79.40
2022-11-17T23:28:08.686Z,79.41
2022-11-17T23:30:41.325Z,79.65
2022-11-17T23:33:14.373Z,79.86
2022-11-17T23:35:49.052Z,80.15
2022-11-17T23:38:22.091Z,80.28
2022-11-17T23:41:00.110Z,80.35
2022-11-17T23:43:35.360Z,80.70
2022-11-17T23:46:13.322Z,81.10
2022-11-17T23:48:49.686Z,81.29
2022-11-17T23:51:24.845Z,81.78
2022-11-17T23:53:58.956Z,82.01
2022-11-17T23:56:34.894Z,81.97
2022-11-17T23:59:08.416Z,81.90
